createdAt,value
2018-05-09T00:02:22.373Z,32.27
2018-05-09T00:04:50.459Z,33.47
2018-05-09T00:07:19.244Z,34.97
2018-05-09T00:09:47.322Z,36.53
2018-05-09T00:12:15.419Z,33.40
2018-05-09T00:14:43.555Z,36.67
2018-05-09T00:17:11.647Z,35.87
2018-05-09T00:19:39.715Z,38.40
2018-05-09T00:22:07.835Z,32.83
2018-05-09T00:24:35.941Z,35.63
2018-05-09T00:27:04.025Z,37.87
2018-05-09T00:29:32.155Z,36.60
2018-05-09T00:32:00.236Z,34.50
2018-05-09T00:34:28.326Z,34.00
2018-05-09T00:36:56.433Z,33.37
2018-05-09T00:39:24.531Z,33.60
2018-05-09T00:41:53.300Z,35.87
2018-05-09T00:44:21.399Z,31.67
2018-05-09T00:46:55.151Z,32.87
2018-05-09T00:49:28.720Z,35.37
2018-05-09T00:51:56.823Z,37.93
2018-05-09T00:54:32.576Z,43.13
2018-05-09T00:57:01.542Z,36.33
2018-05-09T00:59:29.647Z,41.33
2018-05-09T01:01:57.754Z,44.53
2018-05-09T01:04:25.840Z,46.73
2018-05-09T01:06:53.981Z,48.13
2018-05-09T01:09:22.073Z,48.20
2018-05-09T01:11:50.242Z,47.03
2018-05-09T01:14:18.330Z,49.50
2018-05-09T01:16:46.418Z,47.50
2018-05-09T01:19:14.522Z,54.80
2018-05-09T01:21:42.652Z,51.53
2018-05-09T01:24:10.758Z,52.57
2018-05-09T01:26:38.876Z,55.20
2018-05-09T01:29:07.028Z,54.37
2018-05-09T01:31:35.140Z,56.63
2018-05-09T01:34:03.255Z,56.97
2018-05-09T01:36:31.335Z,58.93
2018-05-09T01:38:59.454Z,55.43
2018-05-09T01:41:28.311Z,62.63
2018-05-09T01:43:56.423Z,61.30
2018-05-09T01:46:24.548Z,58.50
2018-05-09T01:48:52.664Z,53.03
2018-05-09T01:51:20.754Z,55.40
2018-05-09T01:53:49.303Z,59.13
2018-05-09T01:56:17.406Z,56.37
2018-05-09T01:58:45.576Z,55.77
2018-05-09T02:01:13.670Z,57.07
2018-05-09T02:03:41.765Z,55.73
2018-05-09T02:06:10.363Z,61.80
2018-05-09T02:08:38.453Z,67.77
2018-05-09T02:11:06.544Z,55.23
2018-05-09T02:13:34.661Z,58.10
2018-05-09T02:16:02.764Z,63.30
2018-05-09T02:18:30.910Z,62.50
2018-05-09T02:20:59.058Z,69.40
2018-05-09T02:23:27.155Z,70.97
2018-05-09T02:25:55.264Z,62.03
2018-05-09T02:28:23.368Z,65.77
2018-05-09T02:30:52.351Z,68.83
2018-05-09T02:33:20.470Z,69.87
2018-05-09T02:35:48.547Z,69.53
2018-05-09T02:38:16.657Z,74.23
2018-05-09T02:53:44.769Z,65.70
2018-05-09T02:56:12.860Z,73.03
2018-05-09T02:58:41.004Z,65.97
2018-05-09T03:01:09.112Z,72.07
2018-05-09T03:03:42.704Z,73.33
2018-05-09T03:06:10.822Z,70.27
2018-05-09T03:08:39.247Z,74.53
2018-05-09T03:11:07.399Z,72.13
2018-05-09T03:13:35.487Z,76.57
2018-05-09T03:16:03.634Z,81.87
2018-05-09T03:18:31.730Z,75.43
2018-05-09T03:20:59.860Z,78.23
2018-05-09T03:23:27.996Z,72.77
2018-05-09T03:25:56.154Z,70.83
2018-05-09T03:28:24.245Z,75.97
2018-05-09T03:30:52.386Z,71.63
2018-05-09T03:33:21.298Z,67.83
2018-05-09T03:35:49.393Z,73.33
2018-05-09T03:38:18.518Z,74.20
2018-05-09T03:40:46.630Z,68.10
2018-05-09T03:43:14.718Z,64.13
2018-05-09T03:45:42.836Z,74.30
2018-05-09T03:48:11.644Z,73.97
2018-05-09T03:50:39.790Z,71.70
2018-05-09T03:53:07.931Z,71.13
2018-05-09T03:55:41.661Z,71.70
2018-05-09T03:58:09.789Z,73.50
2018-05-09T04:00:38.286Z,66.90
2018-05-09T04:03:18.100Z,74.13
2018-05-09T04:05:59.215Z,72.60
2018-05-09T04:08:39.119Z,73.87
2018-05-09T04:11:07.207Z,73.50
2018-05-09T04:13:35.291Z,71.33
2018-05-09T04:16:03.387Z,72.00
2018-05-09T04:18:32.243Z,70.57
2018-05-09T04:21:01.193Z,69.30
2018-05-09T04:23:29.235Z,64.73
2018-05-09T04:25:59.055Z,67.20
2018-05-09T04:28:27.150Z,71.57
2018-05-09T04:30:56.066Z,71.17
2018-05-09T04:33:24.157Z,67.77
2018-05-09T04:35:52.249Z,62.97
2018-05-09T04:38:20.357Z,65.23
2018-05-09T04:40:48.448Z,66.10
2018-05-09T04:43:16.536Z,67.57
2018-05-09T04:45:45.219Z,63.23
2018-05-09T04:48:13.354Z,69.43
2018-05-09T04:50:41.442Z,65.90
2018-05-09T04:53:09.543Z,62.03
2018-05-09T04:55:37.745Z,58.87
2018-05-09T04:58:05.772Z,64.33
2018-05-09T05:00:33.903Z,59.20
2018-05-09T05:03:02.609Z,61.67
2018-05-09T05:05:30.706Z,60.07
2018-05-09T05:07:59.508Z,62.47
2018-05-09T05:10:27.601Z,62.00
2018-05-09T05:12:55.695Z,63.70
2018-05-09T05:15:23.795Z,64.67
2018-05-09T05:17:51.916Z,58.17
2018-05-09T05:20:20.750Z,57.77
2018-05-09T05:22:50.161Z,55.43
2018-05-09T05:25:18.275Z,53.90
2018-05-09T05:27:46.378Z,60.70
2018-05-09T05:30:14.473Z,57.33
2018-05-09T05:32:42.601Z,59.37
2018-05-09T05:35:10.715Z,58.23
2018-05-09T05:37:38.864Z,56.50
2018-05-09T05:40:07.160Z,54.63
2018-05-09T05:42:35.267Z,55.57
2018-05-09T05:45:03.401Z,49.97
2018-05-09T05:47:31.736Z,52.57
2018-05-09T05:49:59.831Z,62.07
2018-05-09T05:52:28.343Z,54.47
2018-05-09T05:54:56.439Z,48.43
2018-05-09T05:57:24.534Z,48.57
2018-05-09T05:59:54.163Z,43.10
2018-05-09T06:02:23.815Z,46.00
2018-05-09T06:04:51.907Z,42.63
2018-05-09T06:07:20.795Z,46.73
2018-05-09T06:09:48.899Z,47.80
2018-05-09T06:12:17.496Z,42.87
2018-05-09T06:14:45.591Z,53.63
2018-05-09T06:17:19.158Z,49.80
2018-05-09T06:19:47.251Z,55.97
2018-05-09T06:22:15.341Z,62.43
2018-05-09T06:24:43.541Z,63.60
2018-05-09T06:27:12.578Z,64.07
2018-05-09T06:29:40.675Z,60.90
2018-05-09T06:32:08.775Z,66.10
2018-05-09T06:34:36.867Z,67.80
2018-05-09T06:37:04.971Z,67.00
2018-05-09T06:39:33.083Z,68.10
2018-05-09T06:42:01.212Z,73.27
2018-05-09T06:44:29.318Z,71.40
2018-05-09T06:46:57.419Z,71.83
2018-05-09T06:49:25.523Z,82.23
2018-05-09T06:51:53.623Z,72.90
2018-05-09T06:54:21.757Z,75.73
2018-05-09T06:56:49.845Z,67.97
2018-05-09T06:59:17.935Z,68.97
2018-05-09T07:01:46.039Z,70.67
2018-05-09T07:04:14.198Z,70.37
2018-05-09T07:06:42.615Z,67.10
2018-05-09T07:09:10.471Z,63.17
2018-05-09T07:11:38.702Z,62.67
2018-05-09T07:14:06.789Z,61.20
2018-05-09T07:16:34.891Z,66.97
2018-05-09T07:19:03.032Z,60.53
2018-05-09T07:21:31.163Z,59.03
2018-05-09T07:23:59.264Z,65.47
2018-05-09T07:26:27.370Z,71.63
2018-05-09T07:28:55.494Z,67.83
2018-05-09T07:31:23.602Z,70.30
2018-05-09T07:33:51.687Z,65.27
2018-05-09T07:36:19.811Z,71.20
2018-05-09T07:38:47.923Z,67.47
2018-05-09T07:41:16.017Z,65.30
2018-05-09T07:43:44.123Z,64.73
2018-05-09T07:46:17.892Z,69.67
2018-05-09T07:48:46.001Z,69.97
2018-05-09T07:51:14.141Z,63.53
2018-05-09T07:53:42.247Z,63.90
2018-05-09T07:56:10.370Z,59.77
2018-05-09T07:58:38.465Z,58.97
2018-05-09T08:01:06.591Z,63.57
2018-05-09T08:03:35.261Z,59.30
2018-05-09T08:06:03.386Z,63.07
2018-05-09T08:08:31.447Z,59.17
2018-05-09T08:10:59.562Z,58.10
2018-05-09T08:26:27.690Z,61.27
2018-05-09T08:28:55.808Z,59.70
2018-05-09T08:31:23.920Z,62.10
2018-05-09T08:33:52.018Z,53.90
2018-05-09T08:36:20.962Z,61.10
2018-05-09T08:38:55.100Z,54.10
2018-05-09T08:41:23.216Z,55.30
2018-05-09T08:43:51.479Z,52.33
2018-05-09T08:46:19.472Z,57.50
2018-05-09T08:48:47.578Z,49.07
2018-05-09T08:51:15.692Z,59.10
2018-05-09T08:53:44.050Z,52.30
2018-05-09T08:56:12.180Z,50.77
2018-05-09T08:58:40.276Z,56.47
2018-05-09T09:01:08.364Z,48.63
2018-05-09T09:03:36.564Z,53.53
2018-05-09T09:06:04.632Z,47.30
2018-05-09T09:08:32.741Z,47.63
2018-05-09T09:11:06.518Z,52.57
2018-05-09T09:13:34.616Z,47.03
2018-05-09T09:16:02.737Z,43.50
2018-05-09T09:18:30.876Z,44.87
2018-05-09T09:20:58.918Z,41.50
2018-05-09T09:23:27.037Z,42.73
2018-05-09T09:25:55.138Z,47.73
2018-05-09T09:28:23.233Z,38.77
2018-05-09T09:30:51.354Z,34.70
2018-05-09T09:33:19.441Z,29.93
2018-05-09T09:35:47.543Z,31.57
2018-05-09T09:38:21.084Z,34.10
2018-05-09T09:40:49.246Z,30.97
2018-05-09T09:43:17.674Z,34.70
2018-05-09T09:45:45.751Z,34.53
2018-05-09T09:48:19.376Z,36.47
2018-05-09T09:50:48.134Z,35.23
2018-05-09T09:53:16.246Z,35.17
2018-05-09T09:55:44.330Z,31.40
2018-05-09T09:58:13.276Z,33.33
2018-05-09T10:00:41.377Z,31.10
2018-05-09T10:03:09.480Z,32.60
2018-05-09T10:05:37.596Z,30.03
2018-05-09T10:08:05.780Z,32.73
2018-05-09T10:10:34.418Z,29.50
2018-05-09T10:13:02.536Z,30.80
2018-05-09T10:15:30.671Z,34.13
2018-05-09T10:17:58.808Z,22.57
2018-05-09T10:20:27.198Z,24.47
2018-05-09T10:22:55.295Z,29.13
2018-05-09T10:25:24.438Z,29.47
2018-05-09T10:27:52.554Z,26.60
2018-05-09T10:30:20.807Z,33.57
2018-05-09T10:32:50.512Z,31.97
2018-05-09T10:35:18.632Z,28.83
2018-05-09T10:37:47.526Z,29.40
2018-05-09T10:40:15.636Z,23.57
2018-05-09T10:42:43.962Z,24.23
2018-05-09T10:45:12.068Z,28.23
2018-05-09T10:47:45.654Z,27.30
2018-05-09T10:50:13.768Z,25.47
2018-05-09T10:52:42.462Z,29.83
2018-05-09T10:55:10.595Z,29.90
2018-05-09T10:57:38.740Z,32.57
2018-05-09T11:00:06.847Z,29.50
2018-05-09T11:02:35.208Z,32.10
2018-05-09T11:05:03.305Z,26.27
2018-05-09T11:07:31.365Z,31.77
2018-05-09T11:09:59.478Z,33.40
2018-05-09T11:12:27.605Z,29.13
2018-05-09T11:14:55.662Z,24.70
2018-05-09T11:17:23.765Z,23.43
2018-05-09T11:19:52.551Z,22.50
2018-05-09T11:22:20.656Z,28.13
2018-05-09T11:24:48.744Z,27.07
2018-05-09T11:27:17.977Z,26.20
2018-05-09T11:29:46.076Z,23.97
2018-05-09T11:32:14.192Z,22.23
2018-05-09T11:34:43.193Z,32.43
2018-05-09T11:37:17.018Z,26.50
2018-05-09T11:39:45.080Z,26.90
2018-05-09T11:42:13.193Z,22.33
2018-05-09T11:44:41.499Z,26.73
2018-05-09T11:47:09.579Z,23.27
2018-05-09T11:49:37.694Z,24.20
2018-05-09T11:52:05.820Z,23.43
2018-05-09T11:54:33.918Z,23.43
2018-05-09T11:57:02.077Z,22.57
2018-05-09T11:59:35.562Z,24.87
2018-05-09T12:02:03.712Z,24.03
2018-05-09T12:04:31.817Z,22.50
2018-05-09T12:06:59.910Z,25.17
2018-05-09T12:09:28.025Z,26.53
2018-05-09T12:11:56.123Z,24.20
2018-05-09T12:14:24.234Z,23.87
2018-05-09T12:16:52.322Z,23.37
2018-05-09T12:19:26.059Z,26.50
2018-05-09T12:21:54.169Z,25.50
2018-05-09T12:24:22.272Z,26.23
2018-05-09T12:26:50.399Z,21.93
2018-05-09T12:29:18.798Z,23.83
2018-05-09T12:31:47.811Z,28.10
2018-05-09T12:34:15.930Z,23.77
2018-05-09T12:36:44.047Z,24.80
2018-05-09T12:39:12.421Z,26.37
2018-05-09T12:41:40.511Z,23.63
2018-05-09T12:44:08.608Z,23.37
2018-05-09T12:46:36.741Z,22.70
2018-05-09T12:49:04.940Z,24.03
2018-05-09T12:51:33.084Z,22.90
2018-05-09T12:54:01.183Z,25.27
2018-05-09T12:56:29.298Z,27.20
2018-05-09T12:58:57.401Z,21.83
2018-05-09T13:01:26.083Z,23.30
2018-05-09T13:03:55.109Z,21.83
2018-05-09T13:06:23.216Z,23.93
2018-05-09T13:08:51.336Z,26.87
2018-05-09T13:11:19.436Z,22.23
2018-05-09T13:13:47.548Z,24.07
2018-05-09T13:16:15.684Z,20.93
2018-05-09T13:18:43.792Z,26.50
2018-05-09T13:21:11.898Z,26.50
2018-05-09T13:23:40.044Z,26.67
2018-05-09T13:26:08.204Z,23.97
2018-05-09T13:28:36.325Z,21.67
2018-05-09T13:31:04.466Z,23.87
2018-05-09T13:33:32.584Z,23.97
2018-05-09T13:36:00.868Z,23.40
2018-05-09T13:38:29.736Z,24.50
2018-05-09T13:40:57.880Z,23.90
2018-05-09T13:43:31.414Z,23.27
2018-05-09T13:45:59.868Z,22.33
2018-05-09T13:48:27.968Z,19.20
2018-05-09T13:50:56.063Z,22.63
2018-05-09T13:53:25.094Z,22.47
2018-05-09T13:55:53.198Z,18.17
2018-05-09T13:58:22.201Z,18.00
2018-05-09T14:00:50.342Z,18.13
2018-05-09T14:03:18.413Z,20.10
2018-05-09T14:05:46.577Z,19.00
2018-05-09T14:08:15.363Z,18.67
2018-05-09T14:10:44.484Z,24.73
2018-05-09T14:13:12.583Z,21.67
2018-05-09T14:15:40.680Z,20.53
2018-05-09T14:18:08.771Z,22.07
2018-05-09T14:20:36.886Z,20.03
2018-05-09T14:23:04.999Z,25.67
2018-05-09T14:25:33.112Z,21.33
2018-05-09T14:28:01.222Z,23.27
2018-05-09T14:30:29.313Z,20.00
2018-05-09T14:32:57.404Z,24.80
2018-05-09T14:35:25.512Z,21.20
2018-05-09T14:37:54.240Z,20.17
2018-05-09T14:40:22.346Z,22.93
2018-05-09T14:43:00.027Z,24.00
2018-05-09T14:45:28.118Z,18.00
2018-05-09T14:47:56.435Z,21.00
2018-05-09T14:50:25.052Z,18.50
2018-05-09T14:52:53.654Z,19.60
2018-05-09T14:55:22.379Z,18.13
2018-05-09T14:57:50.486Z,19.97
2018-05-09T15:00:18.656Z,17.47
2018-05-09T15:02:46.695Z,13.50
2018-05-09T15:05:14.791Z,15.00
2018-05-09T15:07:43.842Z,14.07
2018-05-09T15:10:14.527Z,14.97
2018-05-09T15:12:44.091Z,16.10
2018-05-09T15:15:12.280Z,14.83
2018-05-09T15:17:40.759Z,16.03
2018-05-09T15:20:08.863Z,14.80
2018-05-09T15:22:36.967Z,14.43
2018-05-09T15:25:05.110Z,15.77
2018-05-09T15:27:33.230Z,14.67
2018-05-09T15:30:01.344Z,12.07
2018-05-09T15:32:29.431Z,14.27
2018-05-09T15:34:57.535Z,14.83
2018-05-09T15:37:26.630Z,14.00
2018-05-09T15:39:54.743Z,13.27
2018-05-09T15:42:22.852Z,12.33
2018-05-09T15:44:51.087Z,14.73
2018-05-09T15:47:20.283Z,12.33
2018-05-09T15:49:48.387Z,12.57
2018-05-09T15:52:16.483Z,11.27
2018-05-09T15:54:45.110Z,14.83
2018-05-09T15:57:13.208Z,14.50
2018-05-09T15:59:41.330Z,12.07
2018-05-09T16:02:09.928Z,13.63
2018-05-09T16:04:38.018Z,12.77
2018-05-09T16:07:06.119Z,12.50
2018-05-09T16:09:39.662Z,11.77
2018-05-09T16:12:07.758Z,11.83
2018-05-09T16:14:35.854Z,10.23
2018-05-09T16:17:03.981Z,10.17
2018-05-09T16:19:32.161Z,12.10
2018-05-09T16:22:00.201Z,10.73
2018-05-09T16:24:28.304Z,11.10
2018-05-09T16:26:56.406Z,13.27
2018-05-09T16:29:24.527Z,11.93
2018-05-09T16:31:52.620Z,11.33
2018-05-09T16:34:20.992Z,11.17
2018-05-09T16:36:50.095Z,13.77
2018-05-09T16:39:18.185Z,11.10
2018-05-09T16:41:46.306Z,12.93
2018-05-09T16:44:14.420Z,11.70
2018-05-09T16:46:42.530Z,12.33
2018-05-09T16:49:10.644Z,11.83
2018-05-09T16:51:38.769Z,11.17
2018-05-09T16:54:06.870Z,12.23
2018-05-09T16:56:35.076Z,18.43
2018-05-09T16:59:03.195Z,14.83
2018-05-09T17:01:31.395Z,14.00
2018-05-09T17:03:59.440Z,11.83
2018-05-09T17:06:33.050Z,11.87
2018-05-09T17:09:06.748Z,15.10
2018-05-09T17:11:35.170Z,12.97
2018-05-09T17:14:03.252Z,14.67
2018-05-09T17:16:31.375Z,16.17
2018-05-09T17:18:59.481Z,12.13
2018-05-09T17:21:39.412Z,12.83
2018-05-09T17:24:07.516Z,15.50
2018-05-09T17:26:35.671Z,13.73
2018-05-09T17:29:03.906Z,12.60
2018-05-09T17:31:31.996Z,10.53
2018-05-09T17:34:00.111Z,11.63
2018-05-09T17:36:28.272Z,12.43
2018-05-09T17:38:56.337Z,12.60
2018-05-09T17:41:24.689Z,10.23
2018-05-09T17:43:52.836Z,10.27
2018-05-09T17:46:20.924Z,10.00
2018-05-09T17:48:49.012Z,10.80
2018-05-09T17:51:17.169Z,11.60
2018-05-09T17:53:45.272Z,10.17
2018-05-09T17:56:13.851Z,10.70
2018-05-09T17:58:42.045Z,12.33
2018-05-09T18:01:10.113Z,7.50
2018-05-09T18:03:38.177Z,10.23
2018-05-09T18:06:06.287Z,10.80
2018-05-09T18:08:34.414Z,11.03
2018-05-09T18:11:02.487Z,8.87
2018-05-09T18:13:30.611Z,12.23
2018-05-09T18:15:58.712Z,12.43
2018-05-09T18:18:26.819Z,17.63
2018-05-09T18:20:55.264Z,11.93
2018-05-09T18:23:23.364Z,9.87
2018-05-09T18:25:51.466Z,12.40
2018-05-09T18:28:19.569Z,12.00
2018-05-09T18:30:47.675Z,12.70
2018-05-09T18:33:15.789Z,13.47
2018-05-09T18:35:43.895Z,12.00
2018-05-09T18:38:12.219Z,13.40
2018-05-09T18:40:40.312Z,13.77
2018-05-09T18:43:08.432Z,10.13
2018-05-09T18:45:36.640Z,15.03
2018-05-09T18:48:10.433Z,16.27
2018-05-09T18:50:38.522Z,14.00
2018-05-09T18:53:06.634Z,13.37
2018-05-09T18:55:34.790Z,17.17
2018-05-09T18:58:02.932Z,13.33
2018-05-09T19:00:31.092Z,15.13
2018-05-09T19:02:59.191Z,13.10
2018-05-09T19:05:27.320Z,14.03
2018-05-09T19:07:56.157Z,15.83
2018-05-09T19:10:24.261Z,13.73
2018-05-09T19:12:52.386Z,18.40
2018-05-09T19:15:20.502Z,16.27
2018-05-09T19:17:48.599Z,14.43
2018-05-09T19:20:17.083Z,17.67
2018-05-09T19:22:45.220Z,14.90
2018-05-09T19:25:13.306Z,13.37
2018-05-09T19:27:41.405Z,12.17
2018-05-09T19:30:09.506Z,15.13
2018-05-09T19:32:37.623Z,15.67
2018-05-09T19:35:05.730Z,15.77
2018-05-09T19:37:34.445Z,13.50
2018-05-09T19:40:02.539Z,16.90
2018-05-09T19:42:31.179Z,16.60
2018-05-09T19:44:59.580Z,17.57
2018-05-09T19:47:27.693Z,16.33
2018-05-09T19:49:56.354Z,16.23
2018-05-09T19:52:24.460Z,16.03
2018-05-09T19:54:52.606Z,15.20
2018-05-09T19:57:20.730Z,19.10
2018-05-09T19:59:49.120Z,16.83
2018-05-09T20:02:17.214Z,20.97
2018-05-09T20:04:45.372Z,19.20
2018-05-09T20:07:13.503Z,18.47
2018-05-09T20:09:47.077Z,18.90
2018-05-09T20:12:15.194Z,17.97
2018-05-09T20:14:43.439Z,19.97
2018-05-09T20:17:11.613Z,21.43
2018-05-09T20:19:39.757Z,20.63
2018-05-09T20:22:13.308Z,18.77
2018-05-09T20:24:47.157Z,19.93
2018-05-09T20:27:15.275Z,26.13
2018-05-09T20:29:44.681Z,23.30
2018-05-09T20:32:25.037Z,28.07
2018-05-09T20:34:53.151Z,30.60
2018-05-09T20:37:21.252Z,26.93
2018-05-09T20:39:49.395Z,25.03
2018-05-09T20:42:18.412Z,27.50
2018-05-09T20:44:46.514Z,31.03
2018-05-09T20:47:14.624Z,25.93
2018-05-09T20:49:42.997Z,27.20
2018-05-09T20:52:11.467Z,27.13
2018-05-09T20:54:39.569Z,28.50
2018-05-09T20:57:07.704Z,25.87
2018-05-09T20:59:35.805Z,29.23
2018-05-09T21:02:03.923Z,25.27
2018-05-09T21:04:32.333Z,26.23
2018-05-09T21:07:00.719Z,25.00
2018-05-09T21:09:28.907Z,21.93
2018-05-09T21:12:08.782Z,21.33
2018-05-09T21:14:36.978Z,22.77
2018-05-09T21:17:05.024Z,21.83
2018-05-09T21:19:33.140Z,23.77
2018-05-09T21:22:01.264Z,24.40
2018-05-09T21:24:29.413Z,24.13
2018-05-09T21:26:58.295Z,24.97
2018-05-09T21:29:26.435Z,19.57
2018-05-09T21:31:54.533Z,17.10
2018-05-09T21:34:22.717Z,20.10
2018-05-09T21:36:50.839Z,24.03
2018-05-09T21:39:19.272Z,18.87
2018-05-09T21:41:47.368Z,22.43
2018-05-09T21:44:15.486Z,24.03
2018-05-09T21:46:43.593Z,22.30
2018-05-09T21:49:11.684Z,16.27
2018-05-09T21:51:39.909Z,17.97
2018-05-09T21:54:07.996Z,17.00
2018-05-09T22:09:36.179Z,19.40
2018-05-09T22:12:05.320Z,20.60
2018-05-09T22:14:33.403Z,25.20
2018-05-09T22:17:01.523Z,21.07
2018-05-09T22:19:30.687Z,20.57
2018-05-09T22:21:58.788Z,22.23
2018-05-09T22:24:26.887Z,21.00
2018-05-09T22:26:55.010Z,21.67
2018-05-09T22:29:23.172Z,22.40
2018-05-09T22:31:51.315Z,21.13
2018-05-09T22:34:19.436Z,17.87
2018-05-09T22:36:47.523Z,13.87
2018-05-09T22:39:16.411Z,15.73
2018-05-09T22:41:44.507Z,11.67
2018-05-09T22:44:12.599Z,13.77
2018-05-09T22:46:40.751Z,13.40
2018-05-09T22:49:08.847Z,13.57
2018-05-09T22:51:36.963Z,12.90
2018-05-09T22:54:06.039Z,10.97
2018-05-09T22:56:34.133Z,11.37
2018-05-09T22:59:02.215Z,11.13
2018-05-09T23:01:30.363Z,12.10
2018-05-09T23:03:58.491Z,13.10
2018-05-09T23:06:26.587Z,16.10
2018-05-09T23:08:54.729Z,12.90
2018-05-09T23:11:22.842Z,13.60
2018-05-09T23:13:50.978Z,12.30
2018-05-09T23:16:19.082Z,14.60
2018-05-09T23:18:47.177Z,13.37
2018-05-09T23:21:15.267Z,14.83
2018-05-09T23:23:43.535Z,14.50
2018-05-09T23:26:11.631Z,12.40
2018-05-09T23:28:39.771Z,11.97
2018-05-09T23:31:07.886Z,11.73
2018-05-09T23:33:36.705Z,11.97
2018-05-09T23:36:04.824Z,12.77
2018-05-09T23:38:32.932Z,11.93
2018-05-09T23:41:01.025Z,13.53
2018-05-09T23:43:29.133Z,11.27
2018-05-09T23:45:57.223Z,17.13
2018-05-09T23:48:25.622Z,16.27
2018-05-09T23:50:53.699Z,15.13
2018-05-09T23:53:21.843Z,16.10
2018-05-09T23:55:50.033Z,18.83
2018-05-09T23:58:18.055Z,14.27
